createdAt,value
2023-01-01T00:00:22.463Z,91.67
2023-01-01T00:02:44.901Z,92.12
2023-01-01T00:05:08.257Z,91.85
2023-01-01T00:07:30.527Z,92.29
2023-01-01T00:10:11.541Z,92.60
2023-01-01T00:12:34.003Z,92.52
2023-01-01T00:14:56.444Z,92.66
2023-01-01T00:17:18.786Z,92.83
2023-01-01T00:19:41.193Z,92.35
2023-01-01T00:22:27.957Z,92.17
2023-01-01T00:24:45.832Z,92.59
2023-01-01T00:27:08.209Z,92.39
2023-01-01T00:29:30.605Z,92.87
2023-01-01T00:31:53.121Z,92.73
2023-01-01T00:34:15.621Z,92.92
2023-01-01T00:36:38.069Z,92.57
2023-01-01T00:39:04.359Z,93.01
2023-01-01T00:41:26.718Z,92.86
2023-01-01T00:43:49.105Z,93.04
2023-01-01T00:46:12.020Z,93.42
2023-01-01T00:48:34.540Z,93.46
2023-01-01T00:50:56.915Z,93.79
2023-01-01T00:53:20.272Z,93.65
2023-01-01T00:55:42.758Z,93.89
2023-01-01T00:58:05.191Z,93.65
2023-01-01T01:00:27.774Z,93.59
2023-01-01T01:02:50.375Z,93.66
2023-01-01T01:05:12.787Z,93.92
2023-01-01T01:07:38.742Z,94.21
2023-01-01T01:10:01.206Z,94.22
2023-01-01T01:12:23.606Z,93.92
2023-01-01T01:14:47.110Z,93.89
2023-01-01T01:17:09.527Z,93.99
2023-01-01T01:19:31.961Z,94.18
2023-01-01T01:21:54.571Z,93.71
2023-01-01T01:24:16.978Z,93.68
2023-01-01T01:26:39.366Z,93.41
2023-01-01T01:29:01.845Z,93.05
2023-01-01T01:31:25.931Z,92.86
2023-01-01T01:33:49.200Z,92.54
2023-01-01T01:36:11.872Z,92.59
2023-01-01T01:38:34.254Z,91.63
2023-01-01T01:40:56.819Z,91.67
2023-01-01T01:43:25.669Z,91.24
2023-01-01T01:45:48.486Z,90.57
2023-01-01T01:48:11.338Z,90.22
2023-01-01T01:50:36.571Z,90.28
2023-01-01T01:53:27.389Z,89.67
2023-01-01T01:55:54.055Z,89.42
2023-01-01T01:58:16.719Z,89.21
2023-01-01T02:00:39.139Z,89.13
2023-01-01T02:03:30.237Z,88.71
2023-01-01T02:05:52.802Z,88.04
2023-01-01T02:08:15.934Z,88.16
2023-01-01T02:10:38.292Z,88.12
2023-01-01T02:13:00.667Z,87.68
2023-01-01T02:15:30.247Z,87.36
2023-01-01T02:18:03.539Z,86.34
2023-01-01T02:20:47.472Z,86.56
2023-01-01T02:23:53.072Z,86.47
2023-01-01T02:26:38.810Z,85.92
2023-01-01T02:29:25.897Z,85.54
2023-01-01T02:31:58.872Z,85.18
2023-01-01T02:34:23.507Z,84.60
2023-01-01T02:36:50.929Z,84.26
2023-01-01T02:39:13.305Z,84.09
2023-01-01T02:41:40.220Z,83.48
2023-01-01T02:46:31.100Z,82.51
2023-01-01T02:48:53.687Z,82.45
2023-01-01T02:51:36.361Z,81.90
2023-01-01T02:54:17.145Z,81.66
2023-01-01T02:56:49.029Z,81.59
2023-01-01T02:59:34.671Z,81.45
2023-01-01T03:02:05.984Z,80.74
2023-01-01T03:04:50.484Z,79.60
2023-01-01T03:08:08.631Z,79.23
2023-01-01T03:10:56.852Z,79.27
2023-01-01T03:13:45.402Z,79.19
2023-01-01T03:16:18.053Z,79.18
2023-01-01T03:18:45.141Z,79.34
2023-01-01T03:21:07.506Z,79.50
2023-01-01T03:23:36.041Z,79.79
2023-01-01T03:26:00.460Z,80.08
2023-01-01T03:28:47.870Z,78.70
2023-01-01T03:31:11.081Z,79.83
2023-01-01T03:33:46.618Z,79.00
2023-01-01T03:36:21.733Z,78.79
2023-01-01T03:38:52.711Z,78.27
2023-01-01T03:41:38.005Z,78.66
2023-01-01T03:44:24.157Z,78.65
2023-01-01T03:46:46.611Z,77.82
2023-01-01T03:49:10.623Z,78.19
2023-01-01T03:52:12.591Z,77.96
2023-01-01T03:55:02.684Z,77.35
2023-01-01T03:57:47.794Z,77.10
2023-01-01T04:00:18.878Z,77.12
2023-01-01T04:02:48.303Z,76.45
2023-01-01T04:05:11.138Z,76.43
2023-01-01T04:07:33.666Z,76.84
2023-01-01T04:09:56.019Z,75.96
2023-01-01T04:12:18.486Z,76.05
2023-01-01T04:14:41.860Z,75.70
2023-01-01T04:17:04.974Z,75.63
2023-01-01T04:19:27.462Z,76.08
2023-01-01T04:21:49.984Z,75.83
2023-01-01T04:24:12.455Z,75.90
2023-01-01T04:26:34.897Z,76.33
2023-01-01T04:28:57.328Z,75.96
2023-01-01T04:31:19.672Z,75.95
2023-01-01T04:33:42.105Z,75.37
2023-01-01T04:36:06.856Z,76.23
2023-01-01T04:38:29.242Z,76.26
2023-01-01T04:40:59.615Z,75.29
2023-01-01T04:43:22.011Z,75.94
2023-01-01T04:45:44.439Z,75.41
2023-01-01T04:48:07.308Z,75.87
2023-01-01T04:50:29.692Z,75.73
2023-01-01T04:52:54.080Z,75.73
2023-01-01T04:55:16.620Z,75.85
2023-01-01T04:57:39.176Z,75.77
2023-01-01T05:00:01.649Z,75.57
2023-01-01T05:02:24.276Z,75.10
2023-01-01T05:04:46.794Z,74.94
2023-01-01T05:07:09.257Z,75.50
2023-01-01T05:09:31.646Z,75.75
2023-01-01T05:11:56.157Z,75.46
2023-01-01T05:14:18.547Z,75.43
2023-01-01T05:16:41.210Z,74.73
2023-01-01T05:19:04.408Z,74.77
2023-01-01T05:21:32.956Z,74.58
2023-01-01T05:23:56.964Z,73.98
2023-01-01T05:26:21.336Z,73.50
2023-01-01T05:28:43.958Z,74.12
2023-01-01T05:31:13.138Z,73.92
2023-01-01T05:33:36.095Z,73.43
2023-01-01T05:35:58.521Z,73.85
2023-01-01T05:38:21.038Z,73.95
2023-01-01T05:40:43.478Z,73.02
2023-01-01T05:43:07.497Z,73.13
2023-01-01T05:45:29.885Z,72.89
2023-01-01T05:47:52.407Z,72.81
2023-01-01T05:50:14.853Z,71.98
2023-01-01T05:52:37.301Z,72.55
2023-01-01T05:55:01.191Z,72.57
2023-01-01T05:57:23.648Z,72.02
2023-01-01T05:59:46.062Z,71.83
2023-01-01T06:02:08.618Z,71.79
2023-01-01T06:04:31.448Z,71.64
2023-01-01T06:06:53.892Z,72.16
2023-01-01T06:09:16.255Z,71.50
2023-01-01T06:11:39.771Z,71.22
2023-01-01T06:14:02.615Z,71.57
2023-01-01T06:16:25.401Z,72.25
2023-01-01T06:18:47.823Z,71.22
2023-01-01T06:21:15.648Z,71.49
2023-01-01T06:23:38.088Z,71.95
2023-01-01T06:26:20.490Z,71.06
2023-01-01T06:28:43.478Z,71.63
2023-01-01T06:31:07.314Z,71.28
2023-01-01T06:33:29.997Z,71.32
2023-01-01T06:35:52.404Z,71.49
2023-01-01T06:38:14.820Z,71.07
2023-01-01T06:40:37.175Z,70.51
2023-01-01T06:42:59.571Z,70.23
2023-01-01T06:45:21.994Z,70.76
2023-01-01T06:47:44.434Z,70.73
2023-01-01T06:50:07.623Z,69.97
2023-01-01T06:52:30.111Z,69.97
2023-01-01T06:54:52.497Z,69.59
2023-01-01T06:57:16.033Z,69.92
2023-01-01T06:59:38.390Z,70.16
2023-01-01T07:02:00.991Z,69.77
2023-01-01T07:04:23.504Z,69.56
2023-01-01T07:06:45.908Z,70.22
2023-01-01T07:09:08.693Z,69.76
2023-01-01T07:11:31.298Z,69.45
2023-01-01T07:13:54.167Z,69.21
2023-01-01T07:16:17.294Z,69.08
2023-01-01T07:18:39.778Z,68.86
2023-01-01T07:21:06.056Z,68.28
2023-01-01T07:23:30.452Z,68.59
2023-01-01T07:25:53.436Z,67.69
2023-01-01T07:28:15.871Z,68.01
2023-01-01T07:30:38.292Z,67.76
2023-01-01T07:33:00.719Z,67.56
2023-01-01T07:35:23.088Z,67.41
2023-01-01T07:37:45.603Z,68.35
2023-01-01T07:40:08.901Z,67.41
2023-01-01T07:42:31.241Z,66.72
2023-01-01T07:44:53.642Z,66.59
2023-01-01T07:47:26.276Z,66.57
2023-01-01T07:49:48.701Z,66.69
2023-01-01T07:52:11.146Z,66.35
2023-01-01T07:54:33.534Z,66.18
2023-01-01T07:56:55.939Z,66.51
2023-01-01T07:59:20.525Z,65.93
2023-01-01T08:01:43.348Z,66.33
2023-01-01T08:04:06.082Z,65.84
2023-01-01T08:06:28.472Z,65.62
2023-01-01T08:08:50.925Z,65.56
2023-01-01T08:11:13.362Z,65.70
2023-01-01T08:13:35.780Z,64.97
2023-01-01T08:15:59.078Z,65.15
2023-01-01T08:18:21.609Z,64.65
2023-01-01T08:20:44.031Z,63.96
2023-01-01T08:23:07.697Z,63.66
2023-01-01T08:25:30.267Z,64.21
2023-01-01T08:27:52.700Z,63.31
2023-01-01T08:30:15.876Z,63.40
2023-01-01T08:32:38.263Z,62.95
2023-01-01T08:35:00.679Z,63.11
2023-01-01T08:37:23.388Z,62.62
2023-01-01T08:39:48.811Z,62.50
2023-01-01T08:42:12.573Z,62.89
2023-01-01T08:44:35.107Z,61.44
2023-01-01T08:46:57.526Z,62.00
2023-01-01T08:49:19.915Z,60.57
2023-01-01T08:51:42.370Z,60.58
2023-01-01T08:54:05.150Z,60.60
2023-01-01T08:56:27.569Z,59.79
2023-01-01T08:58:50.035Z,59.58
2023-01-01T09:01:12.509Z,59.38
2023-01-01T09:03:35.081Z,59.18
2023-01-01T09:05:57.780Z,59.10
2023-01-01T09:08:20.569Z,58.95
2023-01-01T09:10:46.210Z,58.97
2023-01-01T09:13:08.610Z,58.77
2023-01-01T09:15:30.984Z,59.19
2023-01-01T09:17:53.371Z,59.17
2023-01-01T09:20:15.841Z,58.78
2023-01-01T09:22:38.262Z,58.56
2023-01-01T09:25:00.620Z,58.59
2023-01-01T09:27:23.182Z,59.02
2023-01-01T09:29:45.582Z,59.13
2023-01-01T09:32:07.962Z,58.70
2023-01-01T09:34:30.376Z,58.63
2023-01-01T09:36:52.825Z,58.63
2023-01-01T09:39:16.020Z,58.91
2023-01-01T09:41:50.378Z,58.58
2023-01-01T09:44:21.534Z,58.86
2023-01-01T09:46:43.960Z,59.24
2023-01-01T09:49:13.595Z,59.25
2023-01-01T09:51:41.116Z,59.06
2023-01-01T09:54:29.009Z,59.03
2023-01-01T09:56:53.434Z,59.50
2023-01-01T09:59:15.884Z,59.94
2023-01-01T10:02:12.031Z,59.68
2023-01-01T10:05:09.036Z,59.89
2023-01-01T10:07:52.105Z,60.26
2023-01-01T10:10:46.549Z,60.09
2023-01-01T10:13:20.764Z,60.45
2023-01-01T10:15:57.779Z,60.52
2023-01-01T10:18:27.943Z,60.75
2023-01-01T10:21:27.703Z,60.84
2023-01-01T10:23:56.494Z,60.81
2023-01-01T10:26:22.719Z,61.08
2023-01-01T10:29:15.016Z,60.95
2023-01-01T10:31:41.257Z,61.15
2023-01-01T10:34:24.539Z,60.93
2023-01-01T10:36:47.025Z,60.90
2023-01-01T10:39:16.512Z,60.87
2023-01-01T10:41:38.973Z,61.05
2023-01-01T10:44:01.553Z,60.77
2023-01-01T10:46:31.301Z,61.21
2023-01-01T10:49:10.497Z,60.62
2023-01-01T10:51:32.863Z,61.00
2023-01-01T10:53:55.827Z,60.78
2023-01-01T10:56:23.318Z,60.89
2023-01-01T10:58:54.808Z,61.02
2023-01-01T11:01:29.672Z,60.85
2023-01-01T11:04:19.255Z,60.81
2023-01-01T11:06:48.189Z,61.11
2023-01-01T11:09:28.233Z,61.01
2023-01-01T11:12:08.022Z,61.25
2023-01-01T11:14:48.455Z,61.42
2023-01-01T11:17:10.866Z,61.13
2023-01-01T11:19:36.898Z,61.72
2023-01-01T11:22:00.215Z,61.97
2023-01-01T11:24:24.874Z,61.30
2023-01-01T11:26:53.902Z,61.69
2023-01-01T11:29:16.427Z,61.76
2023-01-01T11:31:39.498Z,61.65
2023-01-01T11:34:02.266Z,61.65
2023-01-01T11:36:35.314Z,61.68
2023-01-01T11:39:19.501Z,61.78
2023-01-01T11:41:50.555Z,61.70
2023-01-01T11:44:14.108Z,61.62
2023-01-01T11:46:37.706Z,61.84
2023-01-01T11:49:00.148Z,62.05
2023-01-01T11:51:32.858Z,61.74
2023-01-01T11:54:09.462Z,61.71
2023-01-01T11:56:31.827Z,61.64
2023-01-01T11:59:16.508Z,62.01
2023-01-01T12:02:02.445Z,62.09
2023-01-01T12:04:50.548Z,62.26
2023-01-01T12:07:17.072Z,62.48
2023-01-01T12:10:15.711Z,62.47
2023-01-01T12:12:41.308Z,63.15
2023-01-01T12:15:41.236Z,63.16
2023-01-01T12:18:45.038Z,63.11
2023-01-01T12:21:25.134Z,63.39
2023-01-01T12:23:47.513Z,63.35
2023-01-01T12:26:34.591Z,63.60
2023-01-01T12:29:16.129Z,63.39
2023-01-01T12:31:43.852Z,63.41
2023-01-01T12:34:50.785Z,63.44
2023-01-01T12:37:22.022Z,63.81
2023-01-01T12:40:01.988Z,63.83
2023-01-01T12:43:08.604Z,64.03
2023-01-01T12:46:13.184Z,64.23
2023-01-01T12:48:40.794Z,64.50
2023-01-01T12:51:33.389Z,64.32
2023-01-01T12:54:09.748Z,64.56
2023-01-01T12:56:48.439Z,64.67
2023-01-01T12:59:24.583Z,65.01
2023-01-01T13:01:47.104Z,64.77
2023-01-01T13:04:17.961Z,65.10
2023-01-01T13:06:48.243Z,65.01
2023-01-01T13:09:25.183Z,64.84
2023-01-01T13:11:58.866Z,64.93
2023-01-01T13:14:21.267Z,65.28
2023-01-01T13:16:51.915Z,65.01
2023-01-01T13:23:49.933Z,64.54
2023-01-01T13:26:18.327Z,64.67
2023-01-01T13:28:40.705Z,64.63
2023-01-01T13:31:03.088Z,64.45
2023-01-01T13:33:31.277Z,64.47
2023-01-01T13:36:19.573Z,64.66
2023-01-01T13:38:54.937Z,64.65
2023-01-01T13:40:57.024Z,64.76
2023-01-01T13:43:06.419Z,64.62
2023-01-01T13:45:30.380Z,64.63
2023-01-01T13:48:26.685Z,64.74
2023-01-01T13:50:50.048Z,65.17
2023-01-01T13:53:05.446Z,65.07
2023-01-01T13:55:52.969Z,65.40
2023-01-01T13:58:25.657Z,65.18
2023-01-01T14:01:00.471Z,65.45
2023-01-01T14:03:11.052Z,65.62
2023-01-01T14:05:23.236Z,65.79
2023-01-01T14:07:52.043Z,66.08
2023-01-01T14:10:35.838Z,66.39
2023-01-01T14:12:38.568Z,66.17
2023-01-01T14:14:40.797Z,66.44
2023-01-01T14:16:43.130Z,66.73
2023-01-01T14:18:47.709Z,67.08
2023-01-01T14:20:53.601Z,66.68
2023-01-01T14:22:56.057Z,67.19
2023-01-01T14:24:58.247Z,67.04
2023-01-01T14:27:00.833Z,67.30
2023-01-01T14:29:08.445Z,67.52
2023-01-01T14:31:22.196Z,67.55
2023-01-01T14:33:30.472Z,67.84
2023-01-01T14:35:33.446Z,67.59
2023-01-01T14:37:36.432Z,67.71
2023-01-01T14:39:38.894Z,67.94
2023-01-01T14:41:41.436Z,67.99
2023-01-01T14:43:44.871Z,68.05
2023-01-01T14:45:47.591Z,68.20
2023-01-01T14:47:52.180Z,68.35
2023-01-01T14:49:56.211Z,68.47
2023-01-01T14:52:10.065Z,68.79
2023-01-01T14:54:22.276Z,68.93
2023-01-01T14:56:36.766Z,68.92
2023-01-01T14:58:40.578Z,69.18
2023-01-01T15:00:43.641Z,69.01
2023-01-01T15:02:46.094Z,69.58
2023-01-01T15:04:48.662Z,69.74
2023-01-01T15:07:01.068Z,69.98
2023-01-01T15:09:03.395Z,69.98
2023-01-01T15:11:06.341Z,70.39
2023-01-01T15:13:09.157Z,70.16
2023-01-01T15:15:37.255Z,70.48
2023-01-01T15:17:47.032Z,70.87
2023-01-01T15:20:18.627Z,71.17
2023-01-01T15:22:31.999Z,71.28
2023-01-01T15:24:34.668Z,71.19
2023-01-01T15:27:02.232Z,71.26
2023-01-01T15:29:09.280Z,71.98
2023-01-01T15:31:12.209Z,71.80
2023-01-01T15:33:18.441Z,72.14
2023-01-01T15:35:27.811Z,71.61
2023-01-01T15:37:54.081Z,72.68
2023-01-01T15:39:59.160Z,72.46
2023-01-01T15:42:02.021Z,72.67
2023-01-01T15:44:29.782Z,72.58
2023-01-01T15:46:32.942Z,72.94
2023-01-01T15:48:39.609Z,72.40
2023-01-01T15:51:03.467Z,72.80
2023-01-01T15:53:25.608Z,72.83
2023-01-01T15:55:33.373Z,73.07
2023-01-01T15:57:35.614Z,72.76
2023-01-01T15:59:38.317Z,73.85
2023-01-01T16:01:41.319Z,73.20
2023-01-01T16:03:44.280Z,73.69
2023-01-01T16:05:47.923Z,73.28
2023-01-01T16:08:06.225Z,74.16
2023-01-01T16:10:15.795Z,74.20
2023-01-01T16:12:18.445Z,74.05
2023-01-01T16:14:20.956Z,74.30
2023-01-01T16:16:29.199Z,74.40
2023-01-01T16:18:36.587Z,74.27
2023-01-01T16:20:39.076Z,74.83
2023-01-01T16:22:41.278Z,75.00
2023-01-01T16:24:45.255Z,74.54
2023-01-01T16:26:48.722Z,74.50
2023-01-01T16:28:51.023Z,74.52
2023-01-01T16:30:54.059Z,74.88
2023-01-01T16:32:57.097Z,74.49
2023-01-01T16:34:59.712Z,75.03
2023-01-01T16:37:02.282Z,75.37
2023-01-01T16:39:05.153Z,74.27
2023-01-01T16:41:14.536Z,74.79
2023-01-01T16:43:18.118Z,74.47
2023-01-01T16:45:20.198Z,74.28
2023-01-01T16:47:23.361Z,74.51
2023-01-01T16:49:25.967Z,74.19
2023-01-01T16:51:29.376Z,74.43
2023-01-01T16:53:32.441Z,74.33
2023-01-01T16:55:53.458Z,74.68
2023-01-01T16:58:48.022Z,74.15
2023-01-01T17:01:00.724Z,74.37
2023-01-01T17:03:23.309Z,74.52
2023-01-01T17:05:45.733Z,74.49
2023-01-01T17:08:08.297Z,74.55
2023-01-01T17:10:30.872Z,74.78
2023-01-01T17:12:54.921Z,74.51
2023-01-01T17:15:17.566Z,75.05
2023-01-01T17:17:39.968Z,75.06
2023-01-01T17:20:02.465Z,74.89
2023-01-01T17:22:27.930Z,75.32
2023-01-01T17:24:53.139Z,75.06
2023-01-01T17:27:15.555Z,75.39
2023-01-01T17:29:37.967Z,75.62
2023-01-01T17:32:00.583Z,75.61
2023-01-01T17:34:23.002Z,75.78
2023-01-01T17:36:45.627Z,75.28
2023-01-01T17:39:13.227Z,75.79
2023-01-01T17:41:35.714Z,75.49
2023-01-01T17:43:58.075Z,75.59
2023-01-01T17:46:26.073Z,75.78
2023-01-01T17:48:50.642Z,75.63
2023-01-01T17:51:13.422Z,75.78
2023-01-01T17:53:36.487Z,76.08
2023-01-01T17:55:58.938Z,76.13
2023-01-01T17:58:01.174Z,75.66
2023-01-01T18:00:04.026Z,76.09
2023-01-01T18:02:11.700Z,76.06
2023-01-01T18:04:14.233Z,76.56
2023-01-01T18:06:16.366Z,76.36
2023-01-01T18:08:18.779Z,76.60
2023-01-01T18:10:21.342Z,76.63
2023-01-01T18:12:24.052Z,76.44
2023-01-01T18:14:27.118Z,76.88
2023-01-01T18:16:30.837Z,76.89
2023-01-01T18:18:37.605Z,77.15
2023-01-01T18:20:39.803Z,77.07
2023-01-01T18:22:43.339Z,77.34
2023-01-01T18:24:45.827Z,77.44
2023-01-01T18:26:47.967Z,77.81
2023-01-01T18:29:01.403Z,77.66
2023-01-01T18:31:12.995Z,78.05
2023-01-01T18:33:15.885Z,77.60
2023-01-01T18:35:18.330Z,78.16
2023-01-01T18:37:20.405Z,78.24
2023-01-01T18:39:29.956Z,78.42
2023-01-01T18:42:09.609Z,78.61
2023-01-01T18:44:23.771Z,79.06
2023-01-01T18:46:28.700Z,78.76
2023-01-01T18:48:31.083Z,78.88
2023-01-01T18:50:35.970Z,78.92
2023-01-01T18:52:38.410Z,78.75
2023-01-01T18:54:41.414Z,78.87
2023-01-01T18:56:44.166Z,79.59
2023-01-01T18:58:49.443Z,79.24
2023-01-01T19:00:53.682Z,79.44
2023-01-01T19:03:03.725Z,79.92
2023-01-01T19:05:24.714Z,79.84
2023-01-01T19:07:27.362Z,79.79
2023-01-01T19:09:29.967Z,80.16
2023-01-01T19:11:32.710Z,79.77
2023-01-01T19:13:37.401Z,80.13
2023-01-01T19:15:39.834Z,79.67
2023-01-01T19:17:42.828Z,79.93
2023-01-01T19:19:45.222Z,80.10
2023-01-01T19:21:51.773Z,80.11
2023-01-01T19:24:00.826Z,80.34
2023-01-01T19:26:04.311Z,80.40
2023-01-01T19:28:16.335Z,80.42
2023-01-01T19:30:23.383Z,80.42
2023-01-01T19:32:26.035Z,80.55
2023-01-01T19:34:28.389Z,80.74
2023-01-01T19:36:31.304Z,80.45
2023-01-01T19:38:33.910Z,81.10
2023-01-01T19:40:36.531Z,80.46
2023-01-01T19:42:39.207Z,81.05
2023-01-01T19:44:41.285Z,80.84
2023-01-01T19:46:43.547Z,80.62
2023-01-01T19:48:46.212Z,80.45
2023-01-01T19:50:49.155Z,81.03
2023-01-01T19:52:51.657Z,80.85
2023-01-01T19:54:54.630Z,80.63
2023-01-01T19:56:57.308Z,81.16
2023-01-01T19:58:59.883Z,80.75
2023-01-01T20:01:03.242Z,80.43
2023-01-01T20:03:42.895Z,80.73
2023-01-01T20:05:34.866Z,80.95
2023-01-01T20:07:37.531Z,80.76
2023-01-01T20:09:40.251Z,81.24
2023-01-01T20:11:42.897Z,80.96
2023-01-01T20:13:45.576Z,81.57
2023-01-01T20:15:48.342Z,81.12
2023-01-01T20:17:50.974Z,81.09
2023-01-01T20:19:54.890Z,80.93
2023-01-01T20:22:14.250Z,81.40
2023-01-01T20:24:17.693Z,81.02
2023-01-01T20:26:20.981Z,81.46
2023-01-01T20:28:42.505Z,81.55
2023-01-01T20:30:45.027Z,81.54
2023-01-01T20:32:47.659Z,82.09
2023-01-01T20:34:50.849Z,81.83
2023-01-01T20:37:12.490Z,81.59
2023-01-01T20:39:15.266Z,81.73
2023-01-01T20:41:23.418Z,81.94
2023-01-01T20:43:25.847Z,82.07
2023-01-01T20:45:29.409Z,82.07
2023-01-01T20:47:31.784Z,81.94
2023-01-01T20:49:34.695Z,81.99
2023-01-01T20:51:37.402Z,82.49
2023-01-01T20:53:40.139Z,82.23
2023-01-01T20:55:42.466Z,82.01
2023-01-01T20:57:45.079Z,82.19
2023-01-01T20:59:47.689Z,82.70
2023-01-01T21:01:50.414Z,83.08
2023-01-01T21:03:53.266Z,82.44
2023-01-01T21:05:56.018Z,82.37
2023-01-01T21:07:58.444Z,82.20
2023-01-01T21:10:01.249Z,83.34
2023-01-01T21:12:04.240Z,82.89
2023-01-01T21:14:06.599Z,83.69
2023-01-01T21:16:25.508Z,83.83
2023-01-01T21:18:28.517Z,83.12
2023-01-01T21:20:46.899Z,83.84
2023-01-01T21:22:49.249Z,83.64
2023-01-01T21:24:54.449Z,83.66
2023-01-01T21:27:15.502Z,83.79
2023-01-01T21:29:24.021Z,83.77
2023-01-01T21:31:29.517Z,84.00
2023-01-01T21:33:32.790Z,84.01
2023-01-01T21:35:35.523Z,84.24
2023-01-01T21:37:47.228Z,84.08
2023-01-01T21:39:49.561Z,83.77
2023-01-01T21:41:52.192Z,83.29
2023-01-01T21:43:58.854Z,83.60
2023-01-01T21:46:07.163Z,83.76
2023-01-01T21:48:21.736Z,83.99
2023-01-01T21:50:25.718Z,83.68
2023-01-01T21:52:27.959Z,83.68
2023-01-01T21:54:37.368Z,84.67
2023-01-01T21:56:44.220Z,84.12
2023-01-01T21:59:05.231Z,83.70
2023-01-01T22:01:41.020Z,84.45
2023-01-01T22:03:43.438Z,83.61
2023-01-01T22:05:57.347Z,83.40
2023-01-01T22:08:27.139Z,83.88
2023-01-01T22:10:37.485Z,83.87
2023-01-01T22:12:39.885Z,83.53
2023-01-01T22:15:27.708Z,84.45
2023-01-01T22:17:50.079Z,84.75
2023-01-01T22:20:22.100Z,84.43
2023-01-01T22:22:44.511Z,84.17
2023-01-01T22:25:32.919Z,85.34
2023-01-01T22:27:55.697Z,84.76
2023-01-01T22:30:17.998Z,85.01
2023-01-01T22:32:40.385Z,85.08
2023-01-01T22:35:18.968Z,85.87
2023-01-01T22:37:41.333Z,85.07
2023-01-01T22:40:04.037Z,85.73
2023-01-01T22:42:26.424Z,85.34
2023-01-01T22:44:58.157Z,86.59
2023-01-01T22:47:20.558Z,85.81
2023-01-01T22:49:46.929Z,85.98
2023-01-01T22:52:09.840Z,86.37
2023-01-01T22:54:32.213Z,86.16
2023-01-01T22:56:54.599Z,86.72
2023-01-01T22:59:17.020Z,86.42
2023-01-01T23:01:39.527Z,87.37
2023-01-01T23:04:02.033Z,86.84
2023-01-01T23:06:24.473Z,86.87
2023-01-01T23:08:46.887Z,87.97
2023-01-01T23:11:09.337Z,87.83
2023-01-01T23:13:50.438Z,87.31
2023-01-01T23:16:12.838Z,87.22
2023-01-01T23:18:36.354Z,87.34
2023-01-01T23:20:58.917Z,88.22
2023-01-01T23:23:21.249Z,87.26
2023-01-01T23:25:43.594Z,87.73
2023-01-01T23:28:05.952Z,87.45
2023-01-01T23:30:28.330Z,87.78
2023-01-01T23:32:50.756Z,87.91
2023-01-01T23:35:13.196Z,87.69
2023-01-01T23:37:35.641Z,88.10
2023-01-01T23:39:57.998Z,87.96
2023-01-01T23:42:20.401Z,88.03
2023-01-01T23:44:42.937Z,88.24
2023-01-01T23:47:05.400Z,87.91
2023-01-01T23:49:28.054Z,87.64
2023-01-01T23:51:50.422Z,87.88
2023-01-01T23:54:12.835Z,87.86
2023-01-01T23:56:35.231Z,87.53
2023-01-01T23:58:57.585Z,88.74
